New Effington, South Dakota
Current Conditions -  °F | °C
As of 10:16 PM on Monday 22 Dec 2014 (Local Time) from KETH Reporting Station
Unknown Precip Unknown Precip  
Wind Chill: 23°   Ceiling: Unl
Heat Index: 30°   Visibility: 3mi
Dew Point: 30°   Wind: 7mph
Humidity: 100%   Direction: 60°ENE
Pressure: 29.65"   Gusts: NA
Location:  45.86°N, 96.92°W
Report Text: KETH 230416Z AUTO 06006KT 3SM UP SCT006 SCT014 M01/M01 A2965 RMK AO2
Loading
Personal Weather Stations






























Interactive Weather Map New forecast layout! Learn more

10-Day Weather Forecast

Advertisements
Track Severe Weather on mobile